sensor_id;sensor_type;location;lat;lon;timestamp;temperature;humidity
60039;DHT22;45916;52.734;6.544;2023-07-13T00:01:47;14.80;99.90
60039;DHT22;45916;52.734;6.544;2023-07-13T00:04:22;14.70;99.90
60039;DHT22;45916;52.734;6.544;2023-07-13T00:06:48;14.80;99.90
60039;DHT22;45916;52.734;6.544;2023-07-13T00:09:17;14.70;99.90
60039;DHT22;45916;52.734;6.544;2023-07-13T00:11:43;14.70;99.90
60039;DHT22;45916;52.734;6.544;2023-07-13T00:14:10;14.60;99.90
60039;DHT22;45916;52.734;6.544;2023-07-13T00:16:38;14.60;99.90
60039;DHT22;45916;52.734;6.544;2023-07-13T00:19:06;14.60;99.90
60039;DHT22;45916;52.734;6.544;2023-07-13T00:21:32;14.50;99.90
60039;DHT22;45916;52.734;6.544;2023-07-13T00:23:58;14.50;99.90
60039;DHT22;45916;52.734;6.544;2023-07-13T00:26:24;14.40;99.90
60039;DHT22;45916;52.734;6.544;2023-07-13T00:28:49;14.40;99.90
60039;DHT22;45916;52.734;6.544;2023-07-13T00:31:15;14.40;99.90
60039;DHT22;45916;52.734;6.544;2023-07-13T00:33:41;14.50;99.90
60039;DHT22;45916;52.734;6.544;2023-07-13T00:36:08;14.60;99.90
60039;DHT22;45916;52.734;6.544;2023-07-13T00:38:34;14.60;99.90
60039;DHT22;45916;52.734;6.544;2023-07-13T00:41:00;14.70;99.90
60039;DHT22;45916;52.734;6.544;2023-07-13T00:43:27;14.80;99.90
60039;DHT22;45916;52.734;6.544;2023-07-13T00:48:21;14.90;99.90
60039;DHT22;45916;52.734;6.544;2023-07-13T00:50:51;14.90;99.90
60039;DHT22;45916;52.734;6.544;2023-07-13T00:53:19;15.00;99.90
60039;DHT22;45916;52.734;6.544;2023-07-13T00:55:46;15.10;99.90
60039;DHT22;45916;52.734;6.544;2023-07-13T00:58:12;15.10;99.90
60039;DHT22;45916;52.734;6.544;2023-07-13T01:00:38;15.20;99.90
60039;DHT22;45916;52.734;6.544;2023-07-13T01:03:05;15.20;99.90
60039;DHT22;45916;52.734;6.544;2023-07-13T01:05:33;15.30;99.90
60039;DHT22;45916;52.734;6.544;2023-07-13T01:07:59;15.30;99.90
60039;DHT22;45916;52.734;6.544;2023-07-13T01:10:26;15.30;99.90
60039;DHT22;45916;52.734;6.544;2023-07-13T01:12:53;15.20;99.90
60039;DHT22;45916;52.734;6.544;2023-07-13T01:15:40;15.20;99.90
60039;DHT22;45916;52.734;6.544;2023-07-13T01:18:20;15.20;99.90
60039;DHT22;45916;52.734;6.544;2023-07-13T01:21:00;15.20;99.90
60039;DHT22;45916;52.734;6.544;2023-07-13T01:23:27;15.20;99.90
60039;DHT22;45916;52.734;6.544;2023-07-13T01:25:53;15.20;99.90
60039;DHT22;45916;52.734;6.544;2023-07-13T01:28:21;15.30;99.90
60039;DHT22;45916;52.734;6.544;2023-07-13T01:30:47;15.20;99.90
60039;DHT22;45916;52.734;6.544;2023-07-13T01:33:16;15.30;99.90
60039;DHT22;45916;52.734;6.544;2023-07-13T01:35:44;15.30;99.90
60039;DHT22;45916;52.734;6.544;2023-07-13T01:38:11;15.30;99.90
60039;DHT22;45916;52.734;6.544;2023-07-13T01:40:37;15.40;99.90
60039;DHT22;45916;52.734;6.544;2023-07-13T01:43:03;15.40;99.90
60039;DHT22;45916;52.734;6.544;2023-07-13T01:45:29;15.40;99.90
60039;DHT22;45916;52.734;6.544;2023-07-13T01:47:55;15.50;99.90
60039;DHT22;45916;52.734;6.544;2023-07-13T01:50:21;15.50;99.90
60039;DHT22;45916;52.734;6.544;2023-07-13T01:52:47;15.50;99.90
60039;DHT22;45916;52.734;6.544;2023-07-13T01:55:12;15.50;99.90
60039;DHT22;45916;52.734;6.544;2023-07-13T01:57:39;15.50;99.90
60039;DHT22;45916;52.734;6.544;2023-07-13T02:00:06;15.50;99.90
60039;DHT22;45916;52.734;6.544;2023-07-13T02:02:32;15.40;99.90
60039;DHT22;45916;52.734;6.544;2023-07-13T02:04:58;15.30;99.90
60039;DHT22;45916;52.734;6.544;2023-07-13T02:07:23;15.30;99.90
60039;DHT22;45916;52.734;6.544;2023-07-13T02:09:49;15.30;99.90
60039;DHT22;45916;52.734;6.544;2023-07-13T02:12:15;15.20;99.90
60039;DHT22;45916;52.734;6.544;2023-07-13T02:14:40;15.10;99.90
60039;DHT22;45916;52.734;6.544;2023-07-13T02:17:06;15.00;99.90
60039;DHT22;45916;52.734;6.544;2023-07-13T02:19:32;15.00;99.90
60039;DHT22;45916;52.734;6.544;2023-07-13T02:21:58;14.90;99.90
60039;DHT22;45916;52.734;6.544;2023-07-13T02:24:23;14.90;99.90
60039;DHT22;45916;52.734;6.544;2023-07-13T02:26:49;14.80;99.90
60039;DHT22;45916;52.734;6.544;2023-07-13T02:29:15;14.80;99.90
60039;DHT22;45916;52.734;6.544;2023-07-13T02:31:41;14.80;99.90
60039;DHT22;45916;52.734;6.544;2023-07-13T02:34:06;14.80;99.90
60039;DHT22;45916;52.734;6.544;2023-07-13T02:36:32;14.90;99.90
60039;DHT22;45916;52.734;6.544;2023-07-13T02:39:01;14.90;99.90
60039;DHT22;45916;52.734;6.544;2023-07-13T02:41:28;14.90;99.90
60039;DHT22;45916;52.734;6.544;2023-07-13T02:43:54;14.90;99.90
60039;DHT22;45916;52.734;6.544;2023-07-13T02:46:29;14.90;99.90
60039;DHT22;45916;52.734;6.544;2023-07-13T02:48:54;14.90;99.90
60039;DHT22;45916;52.734;6.544;2023-07-13T02:51:20;14.90;99.90
60039;DHT22;45916;52.734;6.544;2023-07-13T02:53:46;14.90;99.90
60039;DHT22;45916;52.734;6.544;2023-07-13T02:56:12;14.90;99.90
60039;DHT22;45916;52.734;6.544;2023-07-13T02:58:37;14.90;99.90
60039;DHT22;45916;52.734;6.544;2023-07-13T03:01:11;14.90;99.90
60039;DHT22;45916;52.734;6.544;2023-07-13T03:03:37;14.90;99.90
60039;DHT22;45916;52.734;6.544;2023-07-13T03:06:04;14.90;99.90
60039;DHT22;45916;52.734;6.544;2023-07-13T03:08:32;14.90;99.90
60039;DHT22;45916;52.734;6.544;2023-07-13T03:11:03;14.90;99.90
60039;DHT22;45916;52.734;6.544;2023-07-13T03:13:29;14.90;99.90
60039;DHT22;45916;52.734;6.544;2023-07-13T03:15:55;14.90;99.90
60039;DHT22;45916;52.734;6.544;2023-07-13T03:18:20;14.80;99.90
60039;DHT22;45916;52.734;6.544;2023-07-13T03:20:46;14.80;99.90
60039;DHT22;45916;52.734;6.544;2023-07-13T03:23:15;14.80;99.90
60039;DHT22;45916;52.734;6.544;2023-07-13T03:25:41;14.80;99.90
60039;DHT22;45916;52.734;6.544;2023-07-13T03:28:07;14.80;99.90
60039;DHT22;45916;52.734;6.544;2023-07-13T03:30:32;14.80;99.90
60039;DHT22;45916;52.734;6.544;2023-07-13T03:32:58;14.80;99.90
60039;DHT22;45916;52.734;6.544;2023-07-13T03:35:24;14.90;99.90
60039;DHT22;45916;52.734;6.544;2023-07-13T03:37:49;14.90;99.90
60039;DHT22;45916;52.734;6.544;2023-07-13T03:40:16;14.90;99.90
60039;DHT22;45916;52.734;6.544;2023-07-13T03:42:42;14.90;99.90
60039;DHT22;45916;52.734;6.544;2023-07-13T03:45:08;14.90;99.90
60039;DHT22;45916;52.734;6.544;2023-07-13T03:47:34;14.90;99.90
60039;DHT22;45916;52.734;6.544;2023-07-13T03:50:00;15.00;99.90
60039;DHT22;45916;52.734;6.544;2023-07-13T03:52:26;15.10;99.90
60039;DHT22;45916;52.734;6.544;2023-07-13T03:54:51;15.10;99.90
60039;DHT22;45916;52.734;6.544;2023-07-13T03:57:18;15.20;99.90
60039;DHT22;45916;52.734;6.544;2023-07-13T03:59:44;15.20;99.90
60039;DHT22;45916;52.734;6.544;2023-07-13T04:02:10;15.30;99.90
60039;DHT22;45916;52.734;6.544;2023-07-13T04:04:35;15.40;99.90
60039;DHT22;45916;52.734;6.544;2023-07-13T04:07:01;15.40;99.90
60039;DHT22;45916;52.734;6.544;2023-07-13T04:09:27;15.40;99.90
60039;DHT22;45916;52.734;6.544;2023-07-13T04:11:52;15.50;99.90
60039;DHT22;45916;52.734;6.544;2023-07-13T04:14:18;15.50;99.90
60039;DHT22;45916;52.734;6.544;2023-07-13T04:16:44;15.50;99.90
60039;DHT22;45916;52.734;6.544;2023-07-13T04:19:10;15.50;99.90
60039;DHT22;45916;52.734;6.544;2023-07-13T04:21:36;15.50;99.90
60039;DHT22;45916;52.734;6.544;2023-07-13T04:24:03;15.50;99.90
60039;DHT22;45916;52.734;6.544;2023-07-13T04:26:32;15.50;99.90
60039;DHT22;45916;52.734;6.544;2023-07-13T04:29:01;15.60;99.90
60039;DHT22;45916;52.734;6.544;2023-07-13T04:31:29;15.60;99.90
60039;DHT22;45916;52.734;6.544;2023-07-13T04:33:55;15.70;99.90
60039;DHT22;45916;52.734;6.544;2023-07-13T04:36:21;15.70;99.90
60039;DHT22;45916;52.734;6.544;2023-07-13T04:38:47;15.80;99.90
60039;DHT22;45916;52.734;6.544;2023-07-13T04:41:14;15.90;99.90
60039;DHT22;45916;52.734;6.544;2023-07-13T04:43:40;16.00;99.90
60039;DHT22;45916;52.734;6.544;2023-07-13T04:46:07;16.20;99.90
60039;DHT22;45916;52.734;6.544;2023-07-13T04:48:34;16.40;99.90
60039;DHT22;45916;52.734;6.544;2023-07-13T04:50:59;16.60;99.90
60039;DHT22;45916;52.734;6.544;2023-07-13T04:53:26;16.70;99.90
60039;DHT22;45916;52.734;6.544;2023-07-13T04:55:52;16.90;99.90
60039;DHT22;45916;52.734;6.544;2023-07-13T04:58:18;17.00;99.90
60039;DHT22;45916;52.734;6.544;2023-07-13T05:00:44;17.10;99.90
60039;DHT22;45916;52.734;6.544;2023-07-13T05:03:09;17.50;99.90
60039;DHT22;45916;52.734;6.544;2023-07-13T05:05:35;18.30;99.90
60039;DHT22;45916;52.734;6.544;2023-07-13T05:08:01;19.30;99.90
60039;DHT22;45916;52.734;6.544;2023-07-13T05:10:27;20.10;99.90
60039;DHT22;45916;52.734;6.544;2023-07-13T05:12:53;21.00;99.90
60039;DHT22;45916;52.734;6.544;2023-07-13T05:15:21;21.90;99.90
60039;DHT22;45916;52.734;6.544;2023-07-13T05:17:48;22.70;99.90
60039;DHT22;45916;52.734;6.544;2023-07-13T05:20:15;23.30;99.90
60039;DHT22;45916;52.734;6.544;2023-07-13T05:22:41;24.10;99.90
60039;DHT22;45916;52.734;6.544;2023-07-13T05:25:08;24.90;97.00
60039;DHT22;45916;52.734;6.544;2023-07-13T05:27:34;25.60;92.90
60039;DHT22;45916;52.734;6.544;2023-07-13T05:30:01;26.20;92.30
60039;DHT22;45916;52.734;6.544;2023-07-13T05:32:27;26.80;90.30
60039;DHT22;45916;52.734;6.544;2023-07-13T05:34:53;27.40;86.40
60039;DHT22;45916;52.734;6.544;2023-07-13T05:37:18;27.90;84.10
60039;DHT22;45916;52.734;6.544;2023-07-13T05:39:44;28.60;82.30
60039;DHT22;45916;52.734;6.544;2023-07-13T05:42:10;29.20;75.20
60039;DHT22;45916;52.734;6.544;2023-07-13T05:44:35;29.50;70.10
60039;DHT22;45916;52.734;6.544;2023-07-13T05:47:01;29.60;68.70
60039;DHT22;45916;52.734;6.544;2023-07-13T05:49:27;30.00;70.10
60039;DHT22;45916;52.734;6.544;2023-07-13T05:51:52;30.70;67.00
60039;DHT22;45916;52.734;6.544;2023-07-13T05:54:18;31.20;65.70
60039;DHT22;45916;52.734;6.544;2023-07-13T05:56:44;31.90;64.30
60039;DHT22;45916;52.734;6.544;2023-07-13T05:59:09;32.60;62.20
60039;DHT22;45916;52.734;6.544;2023-07-13T06:01:35;32.90;59.60
60039;DHT22;45916;52.734;6.544;2023-07-13T06:04:01;33.20;58.20
60039;DHT22;45916;52.734;6.544;2023-07-13T06:06:27;33.50;57.40
60039;DHT22;45916;52.734;6.544;2023-07-13T06:08:52;33.60;55.60
60039;DHT22;45916;52.734;6.544;2023-07-13T06:11:24;33.90;55.30
60039;DHT22;45916;52.734;6.544;2023-07-13T06:13:50;34.30;54.60
60039;DHT22;45916;52.734;6.544;2023-07-13T06:16:17;34.50;54.90
60039;DHT22;45916;52.734;6.544;2023-07-13T06:18:43;34.90;54.30
60039;DHT22;45916;52.734;6.544;2023-07-13T06:21:11;35.40;52.30
60039;DHT22;45916;52.734;6.544;2023-07-13T06:23:37;35.70;51.20
60039;DHT22;45916;52.734;6.544;2023-07-13T06:26:05;36.20;51.10
60039;DHT22;45916;52.734;6.544;2023-07-13T06:28:32;36.80;49.60
60039;DHT22;45916;52.734;6.544;2023-07-13T06:30:58;37.10;49.10
60039;DHT22;45916;52.734;6.544;2023-07-13T06:33:24;37.50;48.40
60039;DHT22;45916;52.734;6.544;2023-07-13T06:35:50;38.00;47.90
60039;DHT22;45916;52.734;6.544;2023-07-13T06:38:16;38.60;48.30
60039;DHT22;45916;52.734;6.544;2023-07-13T06:40:42;39.30;46.10
60039;DHT22;45916;52.734;6.544;2023-07-13T06:43:07;39.20;45.40
60039;DHT22;45916;52.734;6.544;2023-07-13T06:45:42;38.30;45.20
60039;DHT22;45916;52.734;6.544;2023-07-13T06:48:07;37.00;46.20
60039;DHT22;45916;52.734;6.544;2023-07-13T06:50:33;35.60;47.40
60039;DHT22;45916;52.734;6.544;2023-07-13T06:52:59;34.30;49.10
60039;DHT22;45916;52.734;6.544;2023-07-13T06:55:25;33.20;50.20
60039;DHT22;45916;52.734;6.544;2023-07-13T06:57:51;32.20;52.40
60039;DHT22;45916;52.734;6.544;2023-07-13T07:00:17;31.00;54.40
60039;DHT22;45916;52.734;6.544;2023-07-13T07:02:43;29.90;55.90
60039;DHT22;45916;52.734;6.544;2023-07-13T07:05:09;29.30;57.90
60039;DHT22;45916;52.734;6.544;2023-07-13T07:07:35;28.60;58.70
60039;DHT22;45916;52.734;6.544;2023-07-13T07:10:01;28.20;59.90
60039;DHT22;45916;52.734;6.544;2023-07-13T07:12:28;27.80;61.00
60039;DHT22;45916;52.734;6.544;2023-07-13T07:14:54;27.40;61.60
60039;DHT22;45916;52.734;6.544;2023-07-13T07:17:20;27.00;62.20
60039;DHT22;45916;52.734;6.544;2023-07-13T07:19:46;26.40;63.40
60039;DHT22;45916;52.734;6.544;2023-07-13T07:22:11;25.90;65.30
60039;DHT22;45916;52.734;6.544;2023-07-13T07:24:37;25.30;67.20
60039;DHT22;45916;52.734;6.544;2023-07-13T07:27:03;24.70;68.70
60039;DHT22;45916;52.734;6.544;2023-07-13T07:29:29;24.40;70.80
60039;DHT22;45916;52.734;6.544;2023-07-13T07:31:55;24.20;72.80
60039;DHT22;45916;52.734;6.544;2023-07-13T07:34:20;23.90;74.90
60039;DHT22;45916;52.734;6.544;2023-07-13T07:36:46;23.80;77.70
60039;DHT22;45916;52.734;6.544;2023-07-13T07:39:12;23.70;81.60
60039;DHT22;45916;52.734;6.544;2023-07-13T07:41:37;23.70;84.50
60039;DHT22;45916;52.734;6.544;2023-07-13T07:44:03;23.60;87.20
60039;DHT22;45916;52.734;6.544;2023-07-13T07:46:29;23.50;89.40
60039;DHT22;45916;52.734;6.544;2023-07-13T07:48:56;23.50;90.40
60039;DHT22;45916;52.734;6.544;2023-07-13T07:51:22;23.60;90.90
60039;DHT22;45916;52.734;6.544;2023-07-13T07:53:48;23.60;90.70
60039;DHT22;45916;52.734;6.544;2023-07-13T07:56:14;23.70;91.10
60039;DHT22;45916;52.734;6.544;2023-07-13T07:58:42;23.80;91.60
60039;DHT22;45916;52.734;6.544;2023-07-13T08:01:08;24.10;92.20
60039;DHT22;45916;52.734;6.544;2023-07-13T08:03:34;24.70;91.00
60039;DHT22;45916;52.734;6.544;2023-07-13T08:06:01;25.00;89.10
60039;DHT22;45916;52.734;6.544;2023-07-13T08:08:27;25.00;88.50
60039;DHT22;45916;52.734;6.544;2023-07-13T08:10:53;25.10;90.20
60039;DHT22;45916;52.734;6.544;2023-07-13T08:13:19;25.70;88.40
60039;DHT22;45916;52.734;6.544;2023-07-13T08:15:45;26.10;84.70
60039;DHT22;45916;52.734;6.544;2023-07-13T08:18:11;26.50;82.90
60039;DHT22;45916;52.734;6.544;2023-07-13T08:20:40;27.00;81.20
60039;DHT22;45916;52.734;6.544;2023-07-13T08:23:07;27.20;76.90
60039;DHT22;45916;52.734;6.544;2023-07-13T08:25:34;27.10;76.50
60039;DHT22;45916;52.734;6.544;2023-07-13T08:28:01;27.20;76.90
60039;DHT22;45916;52.734;6.544;2023-07-13T08:30:27;27.10;75.10
60039;DHT22;45916;52.734;6.544;2023-07-13T08:32:53;26.90;74.80
60039;DHT22;45916;52.734;6.544;2023-07-13T08:35:19;26.40;75.30
60039;DHT22;45916;52.734;6.544;2023-07-13T08:37:45;25.80;77.40
60039;DHT22;45916;52.734;6.544;2023-07-13T08:40:12;25.30;79.20
60039;DHT22;45916;52.734;6.544;2023-07-13T08:42:50;24.80;81.20
60039;DHT22;45916;52.734;6.544;2023-07-13T08:48:00;24.70;85.60
60039;DHT22;45916;52.734;6.544;2023-07-13T08:50:57;24.90;86.60
60039;DHT22;45916;52.734;6.544;2023-07-13T08:56:23;24.50;85.60
60039;DHT22;45916;52.734;6.544;2023-07-13T08:58:56;24.10;86.80
60039;DHT22;45916;52.734;6.544;2023-07-13T09:01:33;23.60;88.40
60039;DHT22;45916;52.734;6.544;2023-07-13T09:04:07;22.90;91.40
60039;DHT22;45916;52.734;6.544;2023-07-13T09:12:31;21.20;99.10
60039;DHT22;45916;52.734;6.544;2023-07-13T09:14:59;20.40;99.70
60039;DHT22;45916;52.734;6.544;2023-07-13T09:17:34;19.40;99.90
60039;DHT22;45916;52.734;6.544;2023-07-13T09:22:34;18.50;99.90
60039;DHT22;45916;52.734;6.544;2023-07-13T09:25:34;18.30;99.90
60039;DHT22;45916;52.734;6.544;2023-07-13T09:28:13;18.00;99.90
60039;DHT22;45916;52.734;6.544;2023-07-13T09:33:28;17.70;99.90
60039;DHT22;45916;52.734;6.544;2023-07-13T09:35:59;17.70;99.90
60039;DHT22;45916;52.734;6.544;2023-07-13T09:38:27;17.80;99.90
60039;DHT22;45916;52.734;6.544;2023-07-13T09:43:29;18.10;99.90
60039;DHT22;45916;52.734;6.544;2023-07-13T09:45:55;18.30;99.90
60039;DHT22;45916;52.734;6.544;2023-07-13T09:48:21;18.40;99.90
60039;DHT22;45916;52.734;6.544;2023-07-13T09:50:47;18.30;99.90
60039;DHT22;45916;52.734;6.544;2023-07-13T09:53:14;18.20;99.90
60039;DHT22;45916;52.734;6.544;2023-07-13T09:55:41;18.30;99.90
60039;DHT22;45916;52.734;6.544;2023-07-13T09:58:16;18.60;99.90
60039;DHT22;45916;52.734;6.544;2023-07-13T10:01:03;18.90;99.90
60039;DHT22;45916;52.734;6.544;2023-07-13T10:03:34;19.20;99.90
60039;DHT22;45916;52.734;6.544;2023-07-13T10:06:14;19.30;99.90
60039;DHT22;45916;52.734;6.544;2023-07-13T10:08:40;19.60;99.90
60039;DHT22;45916;52.734;6.544;2023-07-13T10:11:34;20.00;99.90
60039;DHT22;45916;52.734;6.544;2023-07-13T10:14:02;20.30;99.90
60039;DHT22;45916;52.734;6.544;2023-07-13T10:16:34;21.00;99.90
60039;DHT22;45916;52.734;6.544;2023-07-13T10:19:04;21.80;99.90
60039;DHT22;45916;52.734;6.544;2023-07-13T10:22:09;23.30;99.90
60039;DHT22;45916;52.734;6.544;2023-07-13T10:24:33;26.20;99.00
60039;DHT22;45916;52.734;6.544;2023-07-13T10:29:37;31.40;79.50
60039;DHT22;45916;52.734;6.544;2023-07-13T10:32:09;33.00;68.20
60039;DHT22;45916;52.734;6.544;2023-07-13T10:34:36;34.20;65.20
60039;DHT22;45916;52.734;6.544;2023-07-13T10:37:02;35.20;62.20
60039;DHT22;45916;52.734;6.544;2023-07-13T10:39:30;35.50;57.60
60039;DHT22;45916;52.734;6.544;2023-07-13T10:42:06;34.50;57.90
60039;DHT22;45916;52.734;6.544;2023-07-13T10:44:35;33.70;57.90
60039;DHT22;45916;52.734;6.544;2023-07-13T10:47:15;33.90;58.20
60039;DHT22;45916;52.734;6.544;2023-07-13T10:49:44;33.40;57.30
60039;DHT22;45916;52.734;6.544;2023-07-13T10:52:40;32.00;57.90
60039;DHT22;45916;52.734;6.544;2023-07-13T11:01:38;27.00;65.80
60039;DHT22;45916;52.734;6.544;2023-07-13T11:03:50;26.00;69.00
60039;DHT22;45916;52.734;6.544;2023-07-13T11:08:57;23.90;76.40
60039;DHT22;45916;52.734;6.544;2023-07-13T11:11:33;23.00;83.30
60039;DHT22;45916;52.734;6.544;2023-07-13T11:14:05;22.20;90.50
60039;DHT22;45916;52.734;6.544;2023-07-13T11:16:49;21.60;94.30
60039;DHT22;45916;52.734;6.544;2023-07-13T11:27:42;24.50;94.00
60039;DHT22;45916;52.734;6.544;2023-07-13T11:30:32;25.00;92.10
60039;DHT22;45916;52.734;6.544;2023-07-13T11:35:45;25.70;91.60
60039;DHT22;45916;52.734;6.544;2023-07-13T11:38:39;26.00;92.90
60039;DHT22;45916;52.734;6.544;2023-07-13T11:43:49;26.20;92.80
60039;DHT22;45916;52.734;6.544;2023-07-13T11:46:24;26.30;92.60
60039;DHT22;45916;52.734;6.544;2023-07-13T11:48:51;26.20;93.00
60039;DHT22;45916;52.734;6.544;2023-07-13T11:51:29;26.20;92.80
60039;DHT22;45916;52.734;6.544;2023-07-13T11:56:48;26.10;92.40
60039;DHT22;45916;52.734;6.544;2023-07-13T11:59:15;25.80;91.70
60039;DHT22;45916;52.734;6.544;2023-07-13T12:01:46;25.70;92.70
60039;DHT22;45916;52.734;6.544;2023-07-13T12:04:29;25.50;92.90
60039;DHT22;45916;52.734;6.544;2023-07-13T12:07:12;25.40;92.60
60039;DHT22;45916;52.734;6.544;2023-07-13T12:09:40;25.50;92.00
60039;DHT22;45916;52.734;6.544;2023-07-13T12:12:12;25.40;92.10
60039;DHT22;45916;52.734;6.544;2023-07-13T12:14:38;25.50;92.10
60039;DHT22;45916;52.734;6.544;2023-07-13T12:19:43;25.60;92.50
60039;DHT22;45916;52.734;6.544;2023-07-13T12:22:12;25.60;91.30
60039;DHT22;45916;52.734;6.544;2023-07-13T12:24:42;25.60;90.60
60039;DHT22;45916;52.734;6.544;2023-07-13T12:27:24;25.70;90.60
60039;DHT22;45916;52.734;6.544;2023-07-13T12:29:52;25.70;91.80
60039;DHT22;45916;52.734;6.544;2023-07-13T12:32:19;25.90;90.60
60039;DHT22;45916;52.734;6.544;2023-07-13T12:34:55;26.00;89.90
60039;DHT22;45916;52.734;6.544;2023-07-13T12:37:22;26.10;81.60
60039;DHT22;45916;52.734;6.544;2023-07-13T12:39:49;25.90;81.10
60039;DHT22;45916;52.734;6.544;2023-07-13T12:42:30;26.00;81.80
60039;DHT22;45916;52.734;6.544;2023-07-13T12:47:47;26.00;78.60
60039;DHT22;45916;52.734;6.544;2023-07-13T12:50:23;26.00;77.00
60039;DHT22;45916;52.734;6.544;2023-07-13T12:53:02;25.90;77.80
60039;DHT22;45916;52.734;6.544;2023-07-13T12:55:43;25.80;76.40
60039;DHT22;45916;52.734;6.544;2023-07-13T12:58:16;25.60;74.00
60039;DHT22;45916;52.734;6.544;2023-07-13T13:00:49;25.20;71.40
60039;DHT22;45916;52.734;6.544;2023-07-13T13:03:22;24.80;72.30
60039;DHT22;45916;52.734;6.544;2023-07-13T13:05:49;24.70;75.70
60039;DHT22;45916;52.734;6.544;2023-07-13T13:08:15;24.90;74.30
60039;DHT22;45916;52.734;6.544;2023-07-13T13:10:40;25.10;74.50
60039;DHT22;45916;52.734;6.544;2023-07-13T13:13:06;25.30;73.10
60039;DHT22;45916;52.734;6.544;2023-07-13T13:15:32;25.20;73.90
60039;DHT22;45916;52.734;6.544;2023-07-13T13:17:58;25.20;74.40
60039;DHT22;45916;52.734;6.544;2023-07-13T13:20:24;25.20;73.80
60039;DHT22;45916;52.734;6.544;2023-07-13T13:22:53;25.20;74.80
60039;DHT22;45916;52.734;6.544;2023-07-13T13:25:19;25.10;73.60
60039;DHT22;45916;52.734;6.544;2023-07-13T13:27:45;24.90;73.80
60039;DHT22;45916;52.734;6.544;2023-07-13T13:30:12;24.60;73.30
60039;DHT22;45916;52.734;6.544;2023-07-13T13:32:39;24.40;73.00
60039;DHT22;45916;52.734;6.544;2023-07-13T13:35:12;24.40;73.00
60039;DHT22;45916;52.734;6.544;2023-07-13T13:37:38;24.40;74.60
60039;DHT22;45916;52.734;6.544;2023-07-13T13:40:17;24.40;74.20
60039;DHT22;45916;52.734;6.544;2023-07-13T13:42:43;24.20;74.10
60039;DHT22;45916;52.734;6.544;2023-07-13T13:45:12;24.00;73.30
60039;DHT22;45916;52.734;6.544;2023-07-13T13:47:39;23.90;75.40
60039;DHT22;45916;52.734;6.544;2023-07-13T13:50:17;23.90;73.50
60039;DHT22;45916;52.734;6.544;2023-07-13T13:52:43;23.80;74.50
60039;DHT22;45916;52.734;6.544;2023-07-13T13:55:20;23.60;73.40
60039;DHT22;45916;52.734;6.544;2023-07-13T13:57:47;23.50;72.20
60039;DHT22;45916;52.734;6.544;2023-07-13T14:00:14;23.60;73.70
60039;DHT22;45916;52.734;6.544;2023-07-13T14:02:46;23.60;74.90
60039;DHT22;45916;52.734;6.544;2023-07-13T14:05:15;23.70;73.30
60039;DHT22;45916;52.734;6.544;2023-07-13T14:07:41;23.60;71.80
60039;DHT22;45916;52.734;6.544;2023-07-13T14:10:17;23.50;73.20
60039;DHT22;45916;52.734;6.544;2023-07-13T14:12:46;23.60;73.60
60039;DHT22;45916;52.734;6.544;2023-07-13T14:15:23;23.60;71.90
60039;DHT22;45916;52.734;6.544;2023-07-13T14:17:49;23.60;73.70
60039;DHT22;45916;52.734;6.544;2023-07-13T14:20:19;23.60;72.40
60039;DHT22;45916;52.734;6.544;2023-07-13T14:22:45;23.60;72.40
60039;DHT22;45916;52.734;6.544;2023-07-13T14:25:16;23.50;72.20
60039;DHT22;45916;52.734;6.544;2023-07-13T14:27:43;23.40;73.60
60039;DHT22;45916;52.734;6.544;2023-07-13T14:30:14;23.40;74.80
60039;DHT22;45916;52.734;6.544;2023-07-13T14:32:40;23.30;75.80
60039;DHT22;45916;52.734;6.544;2023-07-13T14:35:11;23.40;75.00
60039;DHT22;45916;52.734;6.544;2023-07-13T14:37:39;23.40;74.30
60039;DHT22;45916;52.734;6.544;2023-07-13T14:40:16;23.40;74.40
60039;DHT22;45916;52.734;6.544;2023-07-13T14:42:43;23.30;74.20
60039;DHT22;45916;52.734;6.544;2023-07-13T14:45:16;23.20;72.80
60039;DHT22;45916;52.734;6.544;2023-07-13T14:47:42;23.20;73.00
60039;DHT22;45916;52.734;6.544;2023-07-13T14:52:39;23.20;73.90
60039;DHT22;45916;52.734;6.544;2023-07-13T14:55:13;23.20;73.70
60039;DHT22;45916;52.734;6.544;2023-07-13T14:57:39;23.10;74.20
60039;DHT22;45916;52.734;6.544;2023-07-13T15:02:39;23.00;74.20
60039;DHT22;45916;52.734;6.544;2023-07-13T15:05:26;22.90;75.20
60039;DHT22;45916;52.734;6.544;2023-07-13T15:07:53;22.80;74.20
60039;DHT22;45916;52.734;6.544;2023-07-13T15:10:24;22.80;75.60
60039;DHT22;45916;52.734;6.544;2023-07-13T15:12:57;22.80;76.70
60039;DHT22;45916;52.734;6.544;2023-07-13T15:15:23;22.80;76.80
60039;DHT22;45916;52.734;6.544;2023-07-13T15:17:49;22.90;76.60
60039;DHT22;45916;52.734;6.544;2023-07-13T15:20:31;22.90;76.70
60039;DHT22;45916;52.734;6.544;2023-07-13T15:22:58;22.90;77.70
60039;DHT22;45916;52.734;6.544;2023-07-13T15:25:29;22.80;77.60
60039;DHT22;45916;52.734;6.544;2023-07-13T15:27:56;22.80;78.50
60039;DHT22;45916;52.734;6.544;2023-07-13T15:30:26;22.80;80.10
60039;DHT22;45916;52.734;6.544;2023-07-13T15:32:52;22.90;79.50
60039;DHT22;45916;52.734;6.544;2023-07-13T15:35:25;22.90;79.70
60039;DHT22;45916;52.734;6.544;2023-07-13T15:37:51;22.90;79.10
60039;DHT22;45916;52.734;6.544;2023-07-13T15:40:17;23.00;78.80
60039;DHT22;45916;52.734;6.544;2023-07-13T15:42:45;22.90;79.10
60039;DHT22;45916;52.734;6.544;2023-07-13T15:45:22;22.80;78.50
60039;DHT22;45916;52.734;6.544;2023-07-13T15:47:49;22.80;79.80
60039;DHT22;45916;52.734;6.544;2023-07-13T15:50:21;22.80;80.10
60039;DHT22;45916;52.734;6.544;2023-07-13T15:52:50;23.00;79.80
60039;DHT22;45916;52.734;6.544;2023-07-13T15:55:17;22.90;79.60
60039;DHT22;45916;52.734;6.544;2023-07-13T15:57:52;22.80;79.90
60039;DHT22;45916;52.734;6.544;2023-07-13T16:00:26;22.90;80.20
60039;DHT22;45916;52.734;6.544;2023-07-13T16:02:53;22.80;81.20
60039;DHT22;45916;52.734;6.544;2023-07-13T16:05:20;22.70;81.20
60039;DHT22;45916;52.734;6.544;2023-07-13T16:07:48;22.60;81.40
60039;DHT22;45916;52.734;6.544;2023-07-13T16:10:15;22.50;81.50
60039;DHT22;45916;52.734;6.544;2023-07-13T16:12:42;22.60;82.40
60039;DHT22;45916;52.734;6.544;2023-07-13T16:15:19;22.70;82.80
60039;DHT22;45916;52.734;6.544;2023-07-13T16:17:46;22.80;81.60
60039;DHT22;45916;52.734;6.544;2023-07-13T16:20:13;22.90;81.00
60039;DHT22;45916;52.734;6.544;2023-07-13T16:22:40;22.90;82.10
60039;DHT22;45916;52.734;6.544;2023-07-13T16:25:14;22.80;82.50
60039;DHT22;45916;52.734;6.544;2023-07-13T16:27:40;22.70;82.70
60039;DHT22;45916;52.734;6.544;2023-07-13T16:30:20;22.50;83.20
60039;DHT22;45916;52.734;6.544;2023-07-13T16:32:50;22.40;84.50
60039;DHT22;45916;52.734;6.544;2023-07-13T16:35:24;22.30;85.70
60039;DHT22;45916;52.734;6.544;2023-07-13T16:37:51;22.40;85.70
60039;DHT22;45916;52.734;6.544;2023-07-13T16:40:29;22.40;85.00